• Join FlightAware (Why Join?)
  • Login
  • US Flag 
05:14AM EDT


 

Airport Tracker/Info


-or-


 

Live Flight TrackerFlight Track Log ✈ WAV757 ✈ 04-May-2013 ✈ PATA / TAL - PAFA / FAI

Flight Track Log - Related Links

Times and Time Zones

All times are in EDT time to prevent confusion due to time zone crossing. See the WAV757 flight status page for this flight to view local times or setup timezone preferences in your user account.

Time Position Orientation Groundspeed Altitude Reporting Facility
EDT Latitude Longitude Course Direction KTS MPH feet Rate Location/Type
01:44PM 65.1167 -151.5500 97° East 140 161 7,000  Level Anchorage Center
01:45PM 65.1167 -151.4500 90° East 170 196 7,000  Level Anchorage Center
01:46PM 65.1000 -151.3333 109° East 170 196 7,000  Level Anchorage Center
01:47PM 65.0833 -151.2167 109° East 170 196 7,000  Level Anchorage Center
01:48PM 65.0833 -151.1000 90° East 180 207 7,000  Level Anchorage Center
01:49PM 65.0667 -150.9833 109° East 180 207 7,000  Level Anchorage Center
01:50PM 65.1197 -151.4711 97° East  Level FlightAware Approximate
01:50PM 65.0667 -150.8667 90° East 180 207 7,000  Level Anchorage Center
01:51PM 65.0500 -150.7500 109° East 180 207 7,000  Level Anchorage Center
01:52PM 65.0500 -150.6333 90° East 170 196 7,000  Level Anchorage Center
01:53PM 65.0333 -150.5167 109° East 180 207 7,000  Level Anchorage Center
01:54PM 65.0333 -150.4167 90° East 170 196 7,000  Level Anchorage Center
01:55PM 65.0167 -150.3000 109° East 170 196 7,000  Level Anchorage Center
01:56PM 65.0167 -150.1833 90° East 170 196 7,000  Level Anchorage Center
01:57PM 65.0000 -150.0833 111° Southeast 170 196 7,000  Level Anchorage Center
01:58PM 65.0000 -149.9667 90° East 170 196 7,000  Level Anchorage Center
01:59PM 64.9833 -149.8500 109° East 180 207 7,000  Level Anchorage Center
02:00PM 64.9833 -149.7333 90° East 180 207 7,000  Level Anchorage Center
02:01PM 64.9667 -149.6167 109° East 170 196 7,000  Level Anchorage Center
02:02PM 64.9500 -149.5167 111° Southeast 180 207 7,000  Level Anchorage Center
02:04PM 64.9409 -149.3862 99° East  Level FlightAware Approximate
02:11PM 64.8848 -148.6602 108° East  Level FlightAware Approximate
02:12PM 64.8705 -148.5602 109° East  Level FlightAware Approximate
02:13PM 64.8601 -148.4578 101° East  Level FlightAware Approximate
02:14PM 64.8512 -148.3546 102° East  Level FlightAware Approximate
02:15PM 64.8421 -148.2514 102° East  Level FlightAware Approximate
02:16PM 64.8329 -148.1483 102° East  Level FlightAware Approximate
02:17PM 64.8237 -148.0453 102° East  Level FlightAware Approximate
02:18PM 64.8133 -147.9430 109° East  Level FlightAware Approximate
02:19PM 64.8000 -147.8500 109° East  Level FlightAware Approximate
02:20PM 64.8151 -147.8564 109° East  Level Estimated
02:21PM 64.8151 -147.8564 109° East  Level Estimated
02:22PM 64.8151 -147.8564 109° East  Level Estimated
02:23PM 64.8151 -147.8564 109° East  Level Estimated
02:24PM 64.8151 -147.8564 109° East  Level Estimated
02:25PM 64.8151 -147.8564 109° East  Level Estimated
02:26PM 64.8151 -147.8564 109° East  Level Estimated
02:27PM 64.8151 -147.8564 109° East  Level Estimated
02:28PM 64.8151 -147.8564 109° East  Level Estimated
02:29PM 64.8151 -147.8564 109° East  Level Estimated
02:30PM 64.8151 -147.8564 109° East  Level Estimated
02:31PM 64.8151 -147.8564 109° East  Level Estimated
02:32PM 64.8151 -147.8564 109° East  Level Estimated
02:33PM 64.8151 -147.8564 109° East  Level Estimated
02:34PM 64.8151 -147.8564 109° East  Level Estimated
02:35PM 64.8151 -147.8564 109° East  Level Estimated
02:36PM 64.8151 -147.8564 109° East  Level Estimated
02:37PM 64.8151 -147.8564 109° East  Level Estimated
02:38PM 64.8151 -147.8564 109° East  Level Estimated
02:39PM 64.8151 -147.8564 109° East  Level Estimated
02:40PM 64.8151 -147.8564 109° East  Level Estimated